sensor_id;sensor_type;location;lat;lon;timestamp;temperature;humidity
9845;DHT22;4961;50.782;6.080;2022-09-09T00:00:55;16.60;99.90
9845;DHT22;4961;50.782;6.080;2022-09-09T00:03:34;16.60;99.90
9845;DHT22;4961;50.782;6.080;2022-09-09T00:06:10;16.60;99.90
9845;DHT22;4961;50.782;6.080;2022-09-09T00:08:47;16.50;99.90
9845;DHT22;4961;50.782;6.080;2022-09-09T00:11:24;16.50;99.90
9845;DHT22;4961;50.782;6.080;2022-09-09T00:14:00;16.50;99.90
9845;DHT22;4961;50.782;6.080;2022-09-09T00:16:34;16.50;99.90
9845;DHT22;4961;50.782;6.080;2022-09-09T00:19:11;16.50;99.90
9845;DHT22;4961;50.782;6.080;2022-09-09T00:21:49;16.40;99.90
9845;DHT22;4961;50.782;6.080;2022-09-09T00:24:26;16.40;99.90
9845;DHT22;4961;50.782;6.080;2022-09-09T00:27:01;16.40;99.90
9845;DHT22;4961;50.782;6.080;2022-09-09T00:29:36;16.40;99.90
9845;DHT22;4961;50.782;6.080;2022-09-09T00:32:12;16.40;99.90
9845;DHT22;4961;50.782;6.080;2022-09-09T00:34:48;16.40;99.90
9845;DHT22;4961;50.782;6.080;2022-09-09T00:37:19;16.40;99.90
9845;DHT22;4961;50.782;6.080;2022-09-09T00:39:48;16.40;99.90
9845;DHT22;4961;50.782;6.080;2022-09-09T00:42:23;16.40;99.90
9845;DHT22;4961;50.782;6.080;2022-09-09T00:44:58;16.40;99.90
9845;DHT22;4961;50.782;6.080;2022-09-09T00:47:39;16.40;99.90
9845;DHT22;4961;50.782;6.080;2022-09-09T00:50:22;16.40;99.90
9845;DHT22;4961;50.782;6.080;2022-09-09T00:52:59;16.40;99.90
9845;DHT22;4961;50.782;6.080;2022-09-09T00:55:36;16.40;99.90
9845;DHT22;4961;50.782;6.080;2022-09-09T00:58:08;16.40;99.90
9845;DHT22;4961;50.782;6.080;2022-09-09T01:00:42;16.40;99.90
9845;DHT22;4961;50.782;6.080;2022-09-09T01:03:20;16.40;99.90
9845;DHT22;4961;50.782;6.080;2022-09-09T01:06:01;16.40;99.90
9845;DHT22;4961;50.782;6.080;2022-09-09T01:08:43;16.40;99.90
9845;DHT22;4961;50.782;6.080;2022-09-09T01:11:20;16.40;99.90
9845;DHT22;4961;50.782;6.080;2022-09-09T01:13:54;16.40;99.90
9845;DHT22;4961;50.782;6.080;2022-09-09T01:16:26;16.40;99.90
9845;DHT22;4961;50.782;6.080;2022-09-09T01:18:56;16.40;99.90
9845;DHT22;4961;50.782;6.080;2022-09-09T01:21:35;16.40;99.90
9845;DHT22;4961;50.782;6.080;2022-09-09T01:24:19;16.40;99.90
9845;DHT22;4961;50.782;6.080;2022-09-09T01:26:52;16.30;99.90
9845;DHT22;4961;50.782;6.080;2022-09-09T01:29:22;16.20;99.90
9845;DHT22;4961;50.782;6.080;2022-09-09T01:31:55;16.30;99.90
9845;DHT22;4961;50.782;6.080;2022-09-09T01:34:25;16.30;99.90
9845;DHT22;4961;50.782;6.080;2022-09-09T01:36:59;16.30;99.90
9845;DHT22;4961;50.782;6.080;2022-09-09T01:39:31;16.40;99.90
9845;DHT22;4961;50.782;6.080;2022-09-09T01:42:02;16.40;99.90
9845;DHT22;4961;50.782;6.080;2022-09-09T01:44:31;16.40;99.90
9845;DHT22;4961;50.782;6.080;2022-09-09T01:47:00;16.50;99.90
9845;DHT22;4961;50.782;6.080;2022-09-09T01:49:28;16.50;99.90
9845;DHT22;4961;50.782;6.080;2022-09-09T01:51:57;16.50;99.90
9845;DHT22;4961;50.782;6.080;2022-09-09T01:54:28;16.50;99.90
9845;DHT22;4961;50.782;6.080;2022-09-09T01:57:03;16.50;99.90
9845;DHT22;4961;50.782;6.080;2022-09-09T01:59:52;16.50;99.90
9845;DHT22;4961;50.782;6.080;2022-09-09T02:02:27;16.50;99.90
9845;DHT22;4961;50.782;6.080;2022-09-09T02:05:06;16.60;99.90
9845;DHT22;4961;50.782;6.080;2022-09-09T02:07:39;16.60;99.90
9845;DHT22;4961;50.782;6.080;2022-09-09T02:10:11;16.50;99.90
9845;DHT22;4961;50.782;6.080;2022-09-09T02:12:45;16.60;99.90
9845;DHT22;4961;50.782;6.080;2022-09-09T02:15:20;16.60;99.90
9845;DHT22;4961;50.782;6.080;2022-09-09T02:17:52;16.60;99.90
9845;DHT22;4961;50.782;6.080;2022-09-09T02:20:22;16.60;99.90
9845;DHT22;4961;50.782;6.080;2022-09-09T02:22:56;16.60;99.90
9845;DHT22;4961;50.782;6.080;2022-09-09T02:25:26;16.60;99.90
9845;DHT22;4961;50.782;6.080;2022-09-09T02:27:57;16.60;99.90
9845;DHT22;4961;50.782;6.080;2022-09-09T02:30:28;16.60;99.90
9845;DHT22;4961;50.782;6.080;2022-09-09T02:32:58;16.60;99.90
9845;DHT22;4961;50.782;6.080;2022-09-09T02:35:28;16.60;99.90
9845;DHT22;4961;50.782;6.080;2022-09-09T02:38:00;16.60;99.90
9845;DHT22;4961;50.782;6.080;2022-09-09T02:40:30;16.60;99.90
9845;DHT22;4961;50.782;6.080;2022-09-09T02:43:00;16.60;99.90
9845;DHT22;4961;50.782;6.080;2022-09-09T02:45:36;16.60;99.90
9845;DHT22;4961;50.782;6.080;2022-09-09T02:48:13;16.70;99.90
9845;DHT22;4961;50.782;6.080;2022-09-09T02:50:48;16.60;99.90
9845;DHT22;4961;50.782;6.080;2022-09-09T02:53:24;16.60;99.90
9845;DHT22;4961;50.782;6.080;2022-09-09T02:55:55;16.60;99.90
9845;DHT22;4961;50.782;6.080;2022-09-09T02:58:27;16.60;99.90
9845;DHT22;4961;50.782;6.080;2022-09-09T03:00:56;16.60;99.90
9845;DHT22;4961;50.782;6.080;2022-09-09T03:03:25;16.70;99.90
9845;DHT22;4961;50.782;6.080;2022-09-09T03:05:53;16.70;99.90
9845;DHT22;4961;50.782;6.080;2022-09-09T03:08:22;16.70;99.90
9845;DHT22;4961;50.782;6.080;2022-09-09T03:10:51;16.70;99.90
9845;DHT22;4961;50.782;6.080;2022-09-09T03:13:21;16.80;99.90
9845;DHT22;4961;50.782;6.080;2022-09-09T03:15:50;16.80;99.90
9845;DHT22;4961;50.782;6.080;2022-09-09T03:18:19;16.80;99.90
9845;DHT22;4961;50.782;6.080;2022-09-09T03:20:48;16.80;99.90
9845;DHT22;4961;50.782;6.080;2022-09-09T03:23:17;16.80;99.90
9845;DHT22;4961;50.782;6.080;2022-09-09T03:25:49;16.80;99.90
9845;DHT22;4961;50.782;6.080;2022-09-09T03:28:18;16.90;99.90
9845;DHT22;4961;50.782;6.080;2022-09-09T03:30:47;16.90;99.90
9845;DHT22;4961;50.782;6.080;2022-09-09T03:33:17;16.70;99.90
9845;DHT22;4961;50.782;6.080;2022-09-09T03:35:45;16.80;99.90
9845;DHT22;4961;50.782;6.080;2022-09-09T03:38:17;16.70;99.90
9845;DHT22;4961;50.782;6.080;2022-09-09T03:40:52;16.80;99.90
9845;DHT22;4961;50.782;6.080;2022-09-09T03:43:22;16.80;99.90
9845;DHT22;4961;50.782;6.080;2022-09-09T03:45:51;16.70;99.90
9845;DHT22;4961;50.782;6.080;2022-09-09T03:48:20;16.80;99.90
9845;DHT22;4961;50.782;6.080;2022-09-09T03:50:50;16.70;99.90
9845;DHT22;4961;50.782;6.080;2022-09-09T03:53:20;16.70;99.90
9845;DHT22;4961;50.782;6.080;2022-09-09T03:55:51;16.70;99.90
9845;DHT22;4961;50.782;6.080;2022-09-09T03:58:22;16.70;99.90
9845;DHT22;4961;50.782;6.080;2022-09-09T04:00:54;16.70;99.90
9845;DHT22;4961;50.782;6.080;2022-09-09T04:03:24;16.80;99.90
9845;DHT22;4961;50.782;6.080;2022-09-09T04:05:55;16.80;99.90
9845;DHT22;4961;50.782;6.080;2022-09-09T04:08:23;16.80;99.90
9845;DHT22;4961;50.782;6.080;2022-09-09T04:10:53;16.80;99.90
9845;DHT22;4961;50.782;6.080;2022-09-09T04:13:24;16.70;99.90
9845;DHT22;4961;50.782;6.080;2022-09-09T04:15:54;16.80;99.90
9845;DHT22;4961;50.782;6.080;2022-09-09T04:18:25;16.80;99.90
9845;DHT22;4961;50.782;6.080;2022-09-09T04:20:55;16.80;99.90
9845;DHT22;4961;50.782;6.080;2022-09-09T04:23:24;16.70;99.90
9845;DHT22;4961;50.782;6.080;2022-09-09T04:25:56;16.80;99.90
9845;DHT22;4961;50.782;6.080;2022-09-09T04:28:27;16.80;99.90
9845;DHT22;4961;50.782;6.080;2022-09-09T04:31:03;16.70;99.90
9845;DHT22;4961;50.782;6.080;2022-09-09T04:33:33;16.80;99.90
9845;DHT22;4961;50.782;6.080;2022-09-09T04:36:07;16.80;99.90
9845;DHT22;4961;50.782;6.080;2022-09-09T04:38:35;16.80;99.90
9845;DHT22;4961;50.782;6.080;2022-09-09T04:41:05;16.80;99.90
9845;DHT22;4961;50.782;6.080;2022-09-09T04:43:34;16.80;99.90
9845;DHT22;4961;50.782;6.080;2022-09-09T04:46:02;16.80;99.90
9845;DHT22;4961;50.782;6.080;2022-09-09T04:48:30;16.80;99.90
9845;DHT22;4961;50.782;6.080;2022-09-09T04:51:02;16.70;99.90
9845;DHT22;4961;50.782;6.080;2022-09-09T04:53:31;16.80;99.90
9845;DHT22;4961;50.782;6.080;2022-09-09T04:56:04;16.80;99.90
9845;DHT22;4961;50.782;6.080;2022-09-09T04:58:33;16.80;99.90
9845;DHT22;4961;50.782;6.080;2022-09-09T05:01:05;16.70;99.90
9845;DHT22;4961;50.782;6.080;2022-09-09T05:03:33;16.70;99.90
9845;DHT22;4961;50.782;6.080;2022-09-09T05:06:07;16.70;99.90
9845;DHT22;4961;50.782;6.080;2022-09-09T05:08:37;16.60;99.90
9845;DHT22;4961;50.782;6.080;2022-09-09T05:11:16;16.60;99.90
9845;DHT22;4961;50.782;6.080;2022-09-09T05:13:45;16.60;99.90
9845;DHT22;4961;50.782;6.080;2022-09-09T05:16:14;16.60;99.90
9845;DHT22;4961;50.782;6.080;2022-09-09T05:18:43;16.60;99.90
9845;DHT22;4961;50.782;6.080;2022-09-09T05:21:14;16.60;99.90
9845;DHT22;4961;50.782;6.080;2022-09-09T05:23:42;16.50;99.90
9845;DHT22;4961;50.782;6.080;2022-09-09T05:26:13;16.50;99.90
9845;DHT22;4961;50.782;6.080;2022-09-09T05:28:44;16.50;99.90
9845;DHT22;4961;50.782;6.080;2022-09-09T05:31:13;16.50;99.90
9845;DHT22;4961;50.782;6.080;2022-09-09T05:33:43;16.50;99.90
9845;DHT22;4961;50.782;6.080;2022-09-09T05:36:15;16.50;99.90
9845;DHT22;4961;50.782;6.080;2022-09-09T05:38:44;16.50;99.90
9845;DHT22;4961;50.782;6.080;2022-09-09T05:41:14;16.50;99.90
9845;DHT22;4961;50.782;6.080;2022-09-09T05:43:44;16.50;99.90
9845;DHT22;4961;50.782;6.080;2022-09-09T05:46:14;16.50;99.90
9845;DHT22;4961;50.782;6.080;2022-09-09T05:48:45;16.50;99.90
9845;DHT22;4961;50.782;6.080;2022-09-09T05:51:17;16.50;99.90
9845;DHT22;4961;50.782;6.080;2022-09-09T05:53:46;16.50;99.90
9845;DHT22;4961;50.782;6.080;2022-09-09T05:56:16;16.50;99.90
9845;DHT22;4961;50.782;6.080;2022-09-09T05:58:45;16.50;99.90
9845;DHT22;4961;50.782;6.080;2022-09-09T06:01:18;16.50;99.90
9845;DHT22;4961;50.782;6.080;2022-09-09T06:03:47;16.50;99.90
9845;DHT22;4961;50.782;6.080;2022-09-09T06:06:19;16.50;99.90
9845;DHT22;4961;50.782;6.080;2022-09-09T06:08:50;16.50;99.90
9845;DHT22;4961;50.782;6.080;2022-09-09T06:11:21;16.60;99.90
9845;DHT22;4961;50.782;6.080;2022-09-09T06:13:49;16.60;99.90
9845;DHT22;4961;50.782;6.080;2022-09-09T06:16:22;16.60;99.90
9845;DHT22;4961;50.782;6.080;2022-09-09T06:18:51;16.60;99.90
9845;DHT22;4961;50.782;6.080;2022-09-09T06:21:23;16.60;99.90
9845;DHT22;4961;50.782;6.080;2022-09-09T06:23:53;16.50;99.90
9845;DHT22;4961;50.782;6.080;2022-09-09T06:26:27;16.50;99.90
9845;DHT22;4961;50.782;6.080;2022-09-09T06:28:58;16.50;99.90
9845;DHT22;4961;50.782;6.080;2022-09-09T06:31:28;16.50;99.90
9845;DHT22;4961;50.782;6.080;2022-09-09T06:33:58;16.60;99.90
9845;DHT22;4961;50.782;6.080;2022-09-09T06:36:29;16.50;99.90
9845;DHT22;4961;50.782;6.080;2022-09-09T06:38:59;16.50;99.90
9845;DHT22;4961;50.782;6.080;2022-09-09T06:41:30;16.50;99.90
9845;DHT22;4961;50.782;6.080;2022-09-09T06:43:59;16.50;99.90
9845;DHT22;4961;50.782;6.080;2022-09-09T06:46:30;16.50;99.90
9845;DHT22;4961;50.782;6.080;2022-09-09T06:49:01;16.60;99.90
9845;DHT22;4961;50.782;6.080;2022-09-09T06:51:33;16.70;99.90
9845;DHT22;4961;50.782;6.080;2022-09-09T06:54:02;16.70;99.90
9845;DHT22;4961;50.782;6.080;2022-09-09T06:56:33;16.70;99.90
9845;DHT22;4961;50.782;6.080;2022-09-09T06:59:04;16.80;99.90
9845;DHT22;4961;50.782;6.080;2022-09-09T07:01:36;16.80;99.90
9845;DHT22;4961;50.782;6.080;2022-09-09T07:04:07;16.90;99.90
9845;DHT22;4961;50.782;6.080;2022-09-09T07:06:41;17.00;99.90
9845;DHT22;4961;50.782;6.080;2022-09-09T07:09:11;17.10;99.90
9845;DHT22;4961;50.782;6.080;2022-09-09T07:11:42;17.10;99.90
9845;DHT22;4961;50.782;6.080;2022-09-09T07:14:11;17.10;99.90
9845;DHT22;4961;50.782;6.080;2022-09-09T07:16:41;17.10;99.90
9845;DHT22;4961;50.782;6.080;2022-09-09T07:19:10;17.10;99.90
9845;DHT22;4961;50.782;6.080;2022-09-09T07:21:41;17.20;99.90
9845;DHT22;4961;50.782;6.080;2022-09-09T07:24:10;17.20;99.90
9845;DHT22;4961;50.782;6.080;2022-09-09T07:26:39;17.20;99.90
9845;DHT22;4961;50.782;6.080;2022-09-09T07:29:08;17.30;99.90
9845;DHT22;4961;50.782;6.080;2022-09-09T07:31:38;17.30;99.90
9845;DHT22;4961;50.782;6.080;2022-09-09T07:34:07;17.30;99.90
9845;DHT22;4961;50.782;6.080;2022-09-09T07:36:37;17.30;99.90
9845;DHT22;4961;50.782;6.080;2022-09-09T07:39:09;17.30;99.90
9845;DHT22;4961;50.782;6.080;2022-09-09T07:41:41;17.30;99.90
9845;DHT22;4961;50.782;6.080;2022-09-09T07:44:12;17.40;99.90
9845;DHT22;4961;50.782;6.080;2022-09-09T07:46:41;17.50;99.90
9845;DHT22;4961;50.782;6.080;2022-09-09T07:49:10;17.50;99.90
9845;DHT22;4961;50.782;6.080;2022-09-09T07:51:41;17.60;99.90
9845;DHT22;4961;50.782;6.080;2022-09-09T07:54:13;17.60;99.90
9845;DHT22;4961;50.782;6.080;2022-09-09T07:56:41;17.70;99.90
9845;DHT22;4961;50.782;6.080;2022-09-09T07:59:10;17.70;99.90
9845;DHT22;4961;50.782;6.080;2022-09-09T08:01:40;17.70;99.90
9845;DHT22;4961;50.782;6.080;2022-09-09T08:04:11;17.70;99.90
9845;DHT22;4961;50.782;6.080;2022-09-09T08:06:43;17.70;99.90
9845;DHT22;4961;50.782;6.080;2022-09-09T08:09:14;17.70;99.90
9845;DHT22;4961;50.782;6.080;2022-09-09T08:11:43;17.70;99.90
9845;DHT22;4961;50.782;6.080;2022-09-09T08:14:12;17.60;99.90
9845;DHT22;4961;50.782;6.080;2022-09-09T08:16:43;17.60;99.90
9845;DHT22;4961;50.782;6.080;2022-09-09T08:19:11;17.70;99.90
9845;DHT22;4961;50.782;6.080;2022-09-09T08:21:44;17.80;99.90
9845;DHT22;4961;50.782;6.080;2022-09-09T08:24:17;17.90;99.90
9845;DHT22;4961;50.782;6.080;2022-09-09T08:26:47;18.00;99.90
9845;DHT22;4961;50.782;6.080;2022-09-09T08:29:16;18.00;99.90
9845;DHT22;4961;50.782;6.080;2022-09-09T08:31:47;18.00;99.90
9845;DHT22;4961;50.782;6.080;2022-09-09T08:34:15;18.00;99.90
9845;DHT22;4961;50.782;6.080;2022-09-09T08:36:45;18.00;99.90
9845;DHT22;4961;50.782;6.080;2022-09-09T08:39:16;17.90;99.90
9845;DHT22;4961;50.782;6.080;2022-09-09T08:42:08;18.00;99.90
9845;DHT22;4961;50.782;6.080;2022-09-09T08:44:48;18.10;99.90
9845;DHT22;4961;50.782;6.080;2022-09-09T08:47:24;18.10;99.90
9845;DHT22;4961;50.782;6.080;2022-09-09T08:50:07;18.20;99.90
9845;DHT22;4961;50.782;6.080;2022-09-09T08:52:49;18.20;99.90
9845;DHT22;4961;50.782;6.080;2022-09-09T08:55:26;18.40;99.90
9845;DHT22;4961;50.782;6.080;2022-09-09T08:57:58;18.50;99.90
9845;DHT22;4961;50.782;6.080;2022-09-09T09:00:34;18.70;99.90
9845;DHT22;4961;50.782;6.080;2022-09-09T09:03:13;19.00;99.90
9845;DHT22;4961;50.782;6.080;2022-09-09T09:05:49;19.30;99.90
9845;DHT22;4961;50.782;6.080;2022-09-09T09:08:26;19.50;99.90
9845;DHT22;4961;50.782;6.080;2022-09-09T09:10:58;19.80;99.90
9845;DHT22;4961;50.782;6.080;2022-09-09T09:13:34;20.20;99.90
9845;DHT22;4961;50.782;6.080;2022-09-09T09:16:17;20.50;99.90
9845;DHT22;4961;50.782;6.080;2022-09-09T09:18:47;20.80;99.90
9845;DHT22;4961;50.782;6.080;2022-09-09T09:21:20;21.20;99.90
9845;DHT22;4961;50.782;6.080;2022-09-09T09:23:56;21.50;99.90
9845;DHT22;4961;50.782;6.080;2022-09-09T09:26:31;21.80;99.90
9845;DHT22;4961;50.782;6.080;2022-09-09T09:29:03;22.10;99.90
9845;DHT22;4961;50.782;6.080;2022-09-09T09:31:36;22.50;99.90
9845;DHT22;4961;50.782;6.080;2022-09-09T09:34:04;22.60;99.90
9845;DHT22;4961;50.782;6.080;2022-09-09T09:36:37;22.80;99.90
9845;DHT22;4961;50.782;6.080;2022-09-09T09:39:07;22.80;99.90
9845;DHT22;4961;50.782;6.080;2022-09-09T09:41:57;23.00;99.90
9845;DHT22;4961;50.782;6.080;2022-09-09T09:44:32;22.80;99.90
9845;DHT22;4961;50.782;6.080;2022-09-09T09:47:10;22.00;99.90
9845;DHT22;4961;50.782;6.080;2022-09-09T09:49:39;21.80;99.90
9845;DHT22;4961;50.782;6.080;2022-09-09T09:52:14;21.80;99.90
9845;DHT22;4961;50.782;6.080;2022-09-09T09:54:45;21.60;99.90
9845;DHT22;4961;50.782;6.080;2022-09-09T09:57:15;21.40;99.90
9845;DHT22;4961;50.782;6.080;2022-09-09T09:59:45;21.30;99.90
9845;DHT22;4961;50.782;6.080;2022-09-09T10:02:17;21.10;99.90
9845;DHT22;4961;50.782;6.080;2022-09-09T10:04:46;20.80;99.90
9845;DHT22;4961;50.782;6.080;2022-09-09T10:07:19;20.60;99.90
9845;DHT22;4961;50.782;6.080;2022-09-09T10:09:52;20.40;99.90
9845;DHT22;4961;50.782;6.080;2022-09-09T10:12:33;20.20;99.90
9845;DHT22;4961;50.782;6.080;2022-09-09T10:15:09;19.90;99.90
9845;DHT22;4961;50.782;6.080;2022-09-09T10:17:53;19.80;99.90
9845;DHT22;4961;50.782;6.080;2022-09-09T10:20:32;19.50;99.90
9845;DHT22;4961;50.782;6.080;2022-09-09T10:23:10;19.40;99.90
9845;DHT22;4961;50.782;6.080;2022-09-09T10:25:57;19.40;99.90
9845;DHT22;4961;50.782;6.080;2022-09-09T10:31:38;19.30;99.90
9845;DHT22;4961;50.782;6.080;2022-09-09T10:34:32;19.20;99.90
9845;DHT22;4961;50.782;6.080;2022-09-09T10:37:14;19.10;99.90
9845;DHT22;4961;50.782;6.080;2022-09-09T10:39:45;18.90;99.90
9845;DHT22;4961;50.782;6.080;2022-09-09T10:42:15;18.70;99.90
9845;DHT22;4961;50.782;6.080;2022-09-09T10:44:55;18.60;99.90
9845;DHT22;4961;50.782;6.080;2022-09-09T10:50:51;18.20;99.90
9845;DHT22;4961;50.782;6.080;2022-09-09T10:53:36;18.00;99.90
9845;DHT22;4961;50.782;6.080;2022-09-09T10:56:08;18.00;99.90
9845;DHT22;4961;50.782;6.080;2022-09-09T10:58:40;18.00;99.90
9845;DHT22;4961;50.782;6.080;2022-09-09T11:01:15;18.10;99.90
9845;DHT22;4961;50.782;6.080;2022-09-09T11:03:51;18.10;99.90
9845;DHT22;4961;50.782;6.080;2022-09-09T11:06:29;18.10;99.90
9845;DHT22;4961;50.782;6.080;2022-09-09T11:09:02;18.30;99.90
9845;DHT22;4961;50.782;6.080;2022-09-09T11:11:35;18.50;99.90
9845;DHT22;4961;50.782;6.080;2022-09-09T11:14:10;18.60;99.90
9845;DHT22;4961;50.782;6.080;2022-09-09T11:16:45;18.70;99.90
9845;DHT22;4961;50.782;6.080;2022-09-09T11:19:25;19.10;99.90
9845;DHT22;4961;50.782;6.080;2022-09-09T11:21:55;19.20;99.90
9845;DHT22;4961;50.782;6.080;2022-09-09T11:24:29;19.00;99.90
9845;DHT22;4961;50.782;6.080;2022-09-09T11:27:02;19.10;99.90
9845;DHT22;4961;50.782;6.080;2022-09-09T11:35:54;19.00;99.90
9845;DHT22;4961;50.782;6.080;2022-09-09T11:38:41;19.00;99.90
9845;DHT22;4961;50.782;6.080;2022-09-09T11:41:23;19.00;99.90
9845;DHT22;4961;50.782;6.080;2022-09-09T11:43:54;19.00;99.90
9845;DHT22;4961;50.782;6.080;2022-09-09T11:46:36;19.00;99.90
9845;DHT22;4961;50.782;6.080;2022-09-09T11:49:29;19.00;99.90
9845;DHT22;4961;50.782;6.080;2022-09-09T11:52:11;19.10;99.90
9845;DHT22;4961;50.782;6.080;2022-09-09T11:54:47;19.10;99.90
9845;DHT22;4961;50.782;6.080;2022-09-09T11:57:30;19.10;99.90
9845;DHT22;4961;50.782;6.080;2022-09-09T12:00:00;19.00;99.90
9845;DHT22;4961;50.782;6.080;2022-09-09T12:02:29;18.90;99.90
9845;DHT22;4961;50.782;6.080;2022-09-09T12:05:03;18.70;99.90
9845;DHT22;4961;50.782;6.080;2022-09-09T12:07:37;18.70;99.90
9845;DHT22;4961;50.782;6.080;2022-09-09T12:10:22;18.90;99.90
9845;DHT22;4961;50.782;6.080;2022-09-09T12:12:51;19.20;99.90
9845;DHT22;4961;50.782;6.080;2022-09-09T12:15:24;19.40;99.90
9845;DHT22;4961;50.782;6.080;2022-09-09T12:17:57;19.60;99.90
9845;DHT22;4961;50.782;6.080;2022-09-09T12:20:36;19.70;99.90
9845;DHT22;4961;50.782;6.080;2022-09-09T12:23:22;20.00;99.90
9845;DHT22;4961;50.782;6.080;2022-09-09T12:25:58;20.20;99.90
9845;DHT22;4961;50.782;6.080;2022-09-09T12:28:41;20.20;99.90
9845;DHT22;4961;50.782;6.080;2022-09-09T12:31:16;20.00;99.90
9845;DHT22;4961;50.782;6.080;2022-09-09T12:33:46;19.90;99.90
9845;DHT22;4961;50.782;6.080;2022-09-09T12:36:19;19.80;99.90
9845;DHT22;4961;50.782;6.080;2022-09-09T12:38:49;19.70;99.90
9845;DHT22;4961;50.782;6.080;2022-09-09T12:41:20;19.60;99.90
9845;DHT22;4961;50.782;6.080;2022-09-09T12:43:49;19.50;99.90
9845;DHT22;4961;50.782;6.080;2022-09-09T12:46:26;19.40;99.90
9845;DHT22;4961;50.782;6.080;2022-09-09T12:48:57;19.30;99.90
9845;DHT22;4961;50.782;6.080;2022-09-09T12:51:29;19.30;99.90
9845;DHT22;4961;50.782;6.080;2022-09-09T12:53:59;19.50;99.90
9845;DHT22;4961;50.782;6.080;2022-09-09T12:56:30;19.50;99.90
9845;DHT22;4961;50.782;6.080;2022-09-09T12:58:59;19.60;99.90
9845;DHT22;4961;50.782;6.080;2022-09-09T13:01:30;19.70;99.90
9845;DHT22;4961;50.782;6.080;2022-09-09T13:03:59;19.60;99.90
9845;DHT22;4961;50.782;6.080;2022-09-09T13:06:31;19.80;99.90
9845;DHT22;4961;50.782;6.080;2022-09-09T13:09:01;19.80;99.90
9845;DHT22;4961;50.782;6.080;2022-09-09T13:11:34;19.90;99.90
9845;DHT22;4961;50.782;6.080;2022-09-09T13:14:05;20.00;99.90
9845;DHT22;4961;50.782;6.080;2022-09-09T13:16:35;20.10;99.90
9845;DHT22;4961;50.782;6.080;2022-09-09T13:19:13;20.30;99.90
9845;DHT22;4961;50.782;6.080;2022-09-09T13:21:43;20.40;99.90
9845;DHT22;4961;50.782;6.080;2022-09-09T13:24:26;20.40;99.90
9845;DHT22;4961;50.782;6.080;2022-09-09T13:26:58;20.20;99.90
9845;DHT22;4961;50.782;6.080;2022-09-09T13:29:29;20.00;99.90
9845;DHT22;4961;50.782;6.080;2022-09-09T13:32:04;20.00;99.90
9845;DHT22;4961;50.782;6.080;2022-09-09T13:34:35;19.90;99.90
9845;DHT22;4961;50.782;6.080;2022-09-09T13:37:06;19.80;99.90
9845;DHT22;4961;50.782;6.080;2022-09-09T13:39:36;19.60;99.90
9845;DHT22;4961;50.782;6.080;2022-09-09T13:42:05;19.30;99.90
9845;DHT22;4961;50.782;6.080;2022-09-09T13:44:37;19.10;99.90
9845;DHT22;4961;50.782;6.080;2022-09-09T13:47:18;19.00;99.90
9845;DHT22;4961;50.782;6.080;2022-09-09T13:49:47;19.00;99.90
9845;DHT22;4961;50.782;6.080;2022-09-09T13:52:18;19.00;99.90
9845;DHT22;4961;50.782;6.080;2022-09-09T13:54:47;19.10;99.90
9845;DHT22;4961;50.782;6.080;2022-09-09T13:57:17;19.20;99.90
9845;DHT22;4961;50.782;6.080;2022-09-09T13:59:47;19.30;99.90
9845;DHT22;4961;50.782;6.080;2022-09-09T14:02:32;19.30;99.90
9845;DHT22;4961;50.782;6.080;2022-09-09T14:05:02;19.40;99.90
9845;DHT22;4961;50.782;6.080;2022-09-09T14:07:32;19.30;99.90
9845;DHT22;4961;50.782;6.080;2022-09-09T14:10:00;19.40;99.90
9845;DHT22;4961;50.782;6.080;2022-09-09T14:12:29;19.50;99.90
9845;DHT22;4961;50.782;6.080;2022-09-09T14:14:57;19.60;99.90
9845;DHT22;4961;50.782;6.080;2022-09-09T14:17:30;19.60;99.90
9845;DHT22;4961;50.782;6.080;2022-09-09T14:19:58;19.50;99.90
9845;DHT22;4961;50.782;6.080;2022-09-09T14:22:26;19.40;99.90
9845;DHT22;4961;50.782;6.080;2022-09-09T14:24:56;19.30;99.90
9845;DHT22;4961;50.782;6.080;2022-09-09T14:27:25;19.20;99.90
9845;DHT22;4961;50.782;6.080;2022-09-09T14:29:54;19.20;99.90
9845;DHT22;4961;50.782;6.080;2022-09-09T14:32:25;19.20;99.90
9845;DHT22;4961;50.782;6.080;2022-09-09T14:35:00;19.10;99.90
9845;DHT22;4961;50.782;6.080;2022-09-09T14:37:33;19.00;99.90
9845;DHT22;4961;50.782;6.080;2022-09-09T14:40:03;18.80;99.90
9845;DHT22;4961;50.782;6.080;2022-09-09T14:42:32;18.70;99.90
9845;DHT22;4961;50.782;6.080;2022-09-09T14:45:00;18.80;99.90
9845;DHT22;4961;50.782;6.080;2022-09-09T14:47:28;18.80;99.90
9845;DHT22;4961;50.782;6.080;2022-09-09T14:49:59;18.80;99.90
9845;DHT22;4961;50.782;6.080;2022-09-09T14:52:35;18.80;99.90
9845;DHT22;4961;50.782;6.080;2022-09-09T14:55:27;18.80;99.90
9845;DHT22;4961;50.782;6.080;2022-09-09T14:57:56;18.90;99.90
9845;DHT22;4961;50.782;6.080;2022-09-09T15:00:25;18.90;99.90
9845;DHT22;4961;50.782;6.080;2022-09-09T15:02:53;19.00;99.90
9845;DHT22;4961;50.782;6.080;2022-09-09T15:05:23;19.10;99.90
9845;DHT22;4961;50.782;6.080;2022-09-09T15:07:53;19.20;99.90
9845;DHT22;4961;50.782;6.080;2022-09-09T15:10:21;19.30;99.90
9845;DHT22;4961;50.782;6.080;2022-09-09T15:12:51;19.40;99.90
9845;DHT22;4961;50.782;6.080;2022-09-09T15:15:19;19.50;99.90
9845;DHT22;4961;50.782;6.080;2022-09-09T15:17:48;19.60;99.90
9845;DHT22;4961;50.782;6.080;2022-09-09T15:20:17;19.60;99.90
9845;DHT22;4961;50.782;6.080;2022-09-09T15:22:45;19.70;99.90
9845;DHT22;4961;50.782;6.080;2022-09-09T15:25:14;19.50;99.90
9845;DHT22;4961;50.782;6.080;2022-09-09T15:27:44;19.40;99.90
9845;DHT22;4961;50.782;6.080;2022-09-09T15:30:14;19.40;99.90
9845;DHT22;4961;50.782;6.080;2022-09-09T15:32:42;19.20;99.90
9845;DHT22;4961;50.782;6.080;2022-09-09T15:35:11;19.20;99.90
9845;DHT22;4961;50.782;6.080;2022-09-09T15:37:39;19.30;99.90
9845;DHT22;4961;50.782;6.080;2022-09-09T15:40:08;19.30;99.90
9845;DHT22;4961;50.782;6.080;2022-09-09T15:42:36;19.30;99.90
9845;DHT22;4961;50.782;6.080;2022-09-09T15:45:10;19.30;99.90
9845;DHT22;4961;50.782;6.080;2022-09-09T15:47:40;19.20;99.90
9845;DHT22;4961;50.782;6.080;2022-09-09T15:50:09;19.20;99.90
9845;DHT22;4961;50.782;6.080;2022-09-09T15:52:37;19.10;99.90
9845;DHT22;4961;50.782;6.080;2022-09-09T15:55:06;19.00;99.90
9845;DHT22;4961;50.782;6.080;2022-09-09T15:57:35;19.00;99.90
9845;DHT22;4961;50.782;6.080;2022-09-09T16:00:03;19.00;99.90
9845;DHT22;4961;50.782;6.080;2022-09-09T16:02:33;18.90;99.90
9845;DHT22;4961;50.782;6.080;2022-09-09T16:05:06;18.90;99.90
9845;DHT22;4961;50.782;6.080;2022-09-09T16:07:34;18.80;99.90
9845;DHT22;4961;50.782;6.080;2022-09-09T16:10:03;18.70;99.90
9845;DHT22;4961;50.782;6.080;2022-09-09T16:12:31;18.70;99.90
9845;DHT22;4961;50.782;6.080;2022-09-09T16:15:00;18.70;99.90
9845;DHT22;4961;50.782;6.080;2022-09-09T16:17:28;18.70;99.90
9845;DHT22;4961;50.782;6.080;2022-09-09T16:19:56;18.60;99.90
9845;DHT22;4961;50.782;6.080;2022-09-09T16:22:26;18.50;99.90
9845;DHT22;4961;50.782;6.080;2022-09-09T16:24:54;18.50;99.90
9845;DHT22;4961;50.782;6.080;2022-09-09T16:27:23;18.50;99.90
9845;DHT22;4961;50.782;6.080;2022-09-09T16:29:51;18.50;99.90
9845;DHT22;4961;50.782;6.080;2022-09-09T16:32:20;18.40;99.90
9845;DHT22;4961;50.782;6.080;2022-09-09T16:34:49;18.40;99.90
9845;DHT22;4961;50.782;6.080;2022-09-09T16:37:17;18.30;99.90
9845;DHT22;4961;50.782;6.080;2022-09-09T16:39:47;18.40;99.90
9845;DHT22;4961;50.782;6.080;2022-09-09T16:42:17;18.40;99.90
9845;DHT22;4961;50.782;6.080;2022-09-09T16:44:45;18.40;99.90
9845;DHT22;4961;50.782;6.080;2022-09-09T16:47:13;18.40;99.90